Time;durP1;ratioP1;P1;durP2;ratioP2;P2;SDS_P1;SDS_P2;PMS_P1;PMS_P2;Temp;Humidity;BMP_temperature;BMP_pressure;BME280_temperature;BME280_humidity;BME280_pressure;Samples;Min_cycle;Max_cycle;Signal;HPM_P1;HPM_P2
2021/11/14 00:02:38;;;;;;;665.10;73.63;;;10.60;99.90;;;;;;5063406;28;20040;-73
2021/11/14 00:05:43;;;;;;;917.22;88.20;;;10.60;99.90;;;;;;5061559;28;20043;-72
2021/11/14 00:08:49;;;;;;;745.97;80.63;;;10.50;99.90;;;;;;5056970;28;20043;-72
2021/11/14 00:11:54;;;;;;;465.55;66.53;;;10.50;99.90;;;;;;5063331;28;20537;-73
2021/11/14 00:14:58;;;;;;;366.77;59.10;;;10.50;99.90;;;;;;5062434;28;20048;-72
2021/11/14 00:18:09;;;;;;;267.38;55.08;;;10.50;99.90;;;;;;5062259;28;20036;-73
2021/11/14 00:21:21;;;;;;;160.27;47.42;;;10.60;99.90;;;;;;5058551;28;20055;-72
2021/11/14 00:24:26;;;;;;;124.32;46.17;;;10.80;99.90;;;;;;5058182;28;20035;-72
2021/11/14 00:27:31;;;;;;;334.38;58.45;;;10.80;99.90;;;;;;5067573;28;20063;-73
2021/11/14 00:30:36;;;;;;;576.53;69.30;;;10.80;99.90;;;;;;5059190;28;20063;-72
2021/11/14 00:33:43;;;;;;;177.75;49.47;;;10.80;99.90;;;;;;5059009;28;20060;-72
2021/11/14 00:36:47;;;;;;;226.15;52.30;;;10.80;99.90;;;;;;5060689;28;20036;-73
2021/11/14 00:39:52;;;;;;;111.85;46.58;;;10.90;99.90;;;;;;5061743;28;20051;-72
2021/11/14 00:42:58;;;;;;;388.17;60.70;;;11.00;99.90;;;;;;5055843;28;20044;-72
2021/11/14 00:46:05;;;;;;;334.40;54.90;;;11.10;99.90;;;;;;5068528;28;20505;-72
2021/11/14 00:49:10;;;;;;;177.35;49.72;;;11.10;99.90;;;;;;5062949;28;20489;-72
2021/11/14 00:52:14;;;;;;;93.72;42.95;;;11.00;99.90;;;;;;5063411;28;20502;-73
2021/11/14 00:55:20;;;;;;;264.30;55.83;;;11.00;99.90;;;;;;5058162;28;20051;-73
2021/11/14 00:58:25;;;;;;;405.08;56.60;;;11.00;99.90;;;;;;5065338;28;20498;-72
2021/11/14 01:01:29;;;;;;;193.25;52.33;;;11.00;99.90;;;;;;5064034;28;20052;-73
2021/11/14 01:04:33;;;;;;;86.65;43.38;;;11.10;99.90;;;;;;5062596;28;20044;-72
2021/11/14 01:07:38;;;;;;;138.10;48.88;;;11.20;99.90;;;;;;5058330;28;20087;-73
2021/11/14 01:10:49;;;;;;;108.05;45.72;;;11.20;99.90;;;;;;5061438;28;20514;-72
2021/11/14 01:13:54;;;;;;;83.10;42.30;;;11.30;99.90;;;;;;5064320;28;20334;-72
2021/11/14 01:16:58;;;;;;;106.53;41.55;;;11.30;99.90;;;;;;5060939;28;20068;-72
2021/11/14 01:20:02;;;;;;;77.40;39.55;;;11.30;99.90;;;;;;5058673;28;20450;-72
2021/11/14 01:23:10;;;;;;;62.05;33.72;;;11.30;99.90;;;;;;5059151;28;20498;-72
2021/11/14 01:26:14;;;;;;;63.70;34.88;;;11.30;99.90;;;;;;5061551;28;20522;-72
2021/11/14 01:29:19;;;;;;;56.83;33.58;;;11.30;99.90;;;;;;5064232;28;20115;-72
2021/11/14 01:32:24;;;;;;;57.30;31.50;;;11.40;99.90;;;;;;5064957;28;20043;-72
2021/11/14 01:35:29;;;;;;;62.83;32.08;;;11.40;99.90;;;;;;5065148;28;20043;-72
2021/11/14 01:38:33;;;;;;;48.35;28.30;;;11.40;99.90;;;;;;5058555;28;20399;-71
2021/11/14 01:41:37;;;;;;;43.63;26.35;;;11.40;99.90;;;;;;5060379;28;20044;-72
2021/11/14 01:44:41;;;;;;;43.90;27.23;;;11.40;99.90;;;;;;5059691;28;20063;-73
2021/11/14 01:47:46;;;;;;;38.97;24.85;;;11.40;99.90;;;;;;5066247;28;20048;-72
2021/11/14 01:50:51;;;;;;;41.42;25.05;;;11.40;99.90;;;;;;5059682;28;20055;-72
2021/11/14 01:53:56;;;;;;;45.28;27.15;;;11.40;99.90;;;;;;5061851;28;20387;-72
2021/11/14 01:57:00;;;;;;;42.15;24.17;;;11.40;99.90;;;;;;5059155;28;20593;-72
2021/11/14 02:00:22;;;;;;;41.65;25.75;;;11.40;99.90;;;;;;5064795;28;20036;-72
2021/11/14 02:03:29;;;;;;;37.78;22.60;;;11.50;99.90;;;;;;5057243;28;20048;-72
2021/11/14 02:06:38;;;;;;;40.17;24.63;;;11.50;99.90;;;;;;5065368;28;20391;-71
2021/11/14 02:09:43;;;;;;;33.65;20.73;;;11.50;99.90;;;;;;5058108;28;20040;-72
2021/11/14 02:12:47;;;;;;;32.85;20.55;;;11.50;99.90;;;;;;5063408;28;20055;-72
2021/11/14 02:15:51;;;;;;;37.97;19.38;;;11.60;99.90;;;;;;5053602;28;20486;-71
2021/11/14 02:18:55;;;;;;;34.80;19.40;;;11.60;99.90;;;;;;5061712;28;20051;-71
2021/11/14 02:21:59;;;;;;;32.22;18.13;;;11.60;99.90;;;;;;5068321;28;20043;-71
2021/11/14 02:25:08;;;;;;;30.95;17.70;;;11.60;99.90;;;;;;5065380;28;20055;-71
2021/11/14 02:28:15;;;;;;;26.05;15.88;;;11.60;99.90;;;;;;5064893;28;20035;-71
2021/11/14 02:31:21;;;;;;;31.90;18.65;;;11.50;99.90;;;;;;5062099;28;20063;-72
2021/11/14 02:34:25;;;;;;;31.45;17.70;;;11.50;99.90;;;;;;5062118;28;20060;-71
2021/11/14 02:37:30;;;;;;;30.55;18.33;;;11.50;99.90;;;;;;5062232;28;20036;-72
2021/11/14 02:40:35;;;;;;;29.08;17.95;;;11.50;99.90;;;;;;5066468;28;20051;-71
2021/11/14 02:43:45;;;;;;;27.67;16.23;;;11.60;99.90;;;;;;5061757;28;20063;-71
2021/11/14 02:46:49;;;;;;;30.85;17.88;;;11.60;99.90;;;;;;5063397;28;20060;-71
2021/11/14 02:49:53;;;;;;;31.33;18.42;;;11.60;99.90;;;;;;5065357;28;20051;-71
2021/11/14 02:52:57;;;;;;;25.60;16.77;;;11.60;99.90;;;;;;5063231;28;20055;-70
2021/11/14 02:56:02;;;;;;;39.85;19.80;;;11.60;99.90;;;;;;5071967;28;20047;-71
2021/11/14 02:59:06;;;;;;;29.50;17.98;;;11.50;99.90;;;;;;5059475;28;20043;-71
2021/11/14 03:02:10;;;;;;;29.00;17.42;;;11.60;99.90;;;;;;5071038;28;20398;-71
2021/11/14 03:05:18;;;;;;;27.65;15.38;;;11.60;99.90;;;;;;5063068;28;20495;-71
2021/11/14 03:08:22;;;;;;;24.17;12.77;;;11.60;99.90;;;;;;5058216;28;20051;-71
2021/11/14 03:11:26;;;;;;;19.52;10.55;;;11.60;99.90;;;;;;5061298;28;20060;-71
2021/11/14 03:14:49;;;;;;;10.50;4.70;;;11.60;99.90;;;;;;5068034;28;20040;-70
2021/11/14 03:17:53;;;;;;;7.78;3.67;;;11.50;99.90;;;;;;5057180;28;20297;-70
2021/11/14 03:20:58;;;;;;;2.53;1.83;;;11.50;99.90;;;;;;5064011;28;20063;-71
2021/11/14 03:24:03;;;;;;;4.18;1.88;;;11.60;99.90;;;;;;5067652;28;20408;-71
2021/11/14 03:27:07;;;;;;;8.43;1.80;;;11.50;99.90;;;;;;5069777;28;20261;-71
2021/11/14 03:30:15;;;;;;;3.58;1.73;;;11.50;99.90;;;;;;5068621;28;20036;-71
2021/11/14 03:33:20;;;;;;;3.80;1.52;;;11.50;99.90;;;;;;5062137;28;20486;-71
2021/11/14 03:36:26;;;;;;;3.97;1.80;;;11.50;99.90;;;;;;5070728;28;20044;-71
2021/11/14 03:39:30;;;;;;;2.70;1.63;;;11.40;99.90;;;;;;5066250;28;20407;-71
2021/11/14 03:42:34;;;;;;;2.83;1.30;;;11.50;99.90;;;;;;5060908;28;20051;-71
2021/11/14 03:45:39;;;;;;;2.70;1.27;;;11.50;99.90;;;;;;5060822;28;20055;-72
2021/11/14 03:48:45;;;;;;;6.50;3.88;;;11.40;99.90;;;;;;5061392;28;20063;-72
2021/11/14 03:51:49;;;;;;;10.85;6.00;;;11.20;99.90;;;;;;5064420;28;20048;-72
2021/11/14 03:54:53;;;;;;;12.00;7.15;;;11.00;99.90;;;;;;5061045;28;20044;-72
2021/11/14 03:57:58;;;;;;;487.80;32.15;;;10.90;99.90;;;;;;5058364;28;20052;-72
2021/11/14 04:01:17;;;;;;;104.32;18.58;;;10.90;99.90;;;;;;5068018;28;20040;-72
2021/11/14 04:04:21;;;;;;;43.70;16.27;;;10.80;99.90;;;;;;5064842;28;20384;-72
2021/11/14 04:07:25;;;;;;;71.70;20.00;;;10.80;99.90;;;;;;5061585;28;20040;-72
2021/11/14 04:10:29;;;;;;;47.95;21.95;;;10.80;99.90;;;;;;5067327;28;20047;-72
2021/11/14 04:13:35;;;;;;;493.05;39.80;;;10.80;99.90;;;;;;5060245;28;20052;-72
2021/11/14 04:16:40;;;;;;;595.63;48.67;;;10.90;99.90;;;;;;5060058;28;20383;-72
2021/11/14 04:19:44;;;;;;;1170.82;81.95;;;10.90;99.90;;;;;;5063521;28;20047;-72
2021/11/14 04:22:48;;;;;;;1044.60;77.95;;;10.80;99.90;;;;;;5063443;28;20044;-71
2021/11/14 04:25:52;;;;;;;569.25;55.63;;;10.80;99.90;;;;;;5059735;28;20033;-72
2021/11/14 04:28:56;;;;;;;421.90;47.35;;;10.90;99.90;;;;;;5062061;28;20450;-72
2021/11/14 04:32:00;;;;;;;866.60;72.60;;;10.90;99.90;;;;;;5070794;28;20082;-72
2021/11/14 04:35:05;;;;;;;88.50;34.17;;;10.90;99.90;;;;;;5059599;28;20052;-72
2021/11/14 04:38:10;;;;;;;82.82;33.60;;;10.90;99.90;;;;;;5062110;28;20373;-72
2021/11/14 04:41:14;;;;;;;749.67;69.80;;;11.00;99.90;;;;;;5059939;28;20055;-72
2021/11/14 04:44:19;;;;;;;528.70;57.85;;;10.90;99.90;;;;;;5064880;28;20039;-72
2021/11/14 04:47:24;;;;;;;119.40;34.42;;;10.90;99.90;;;;;;5064494;28;20052;-72
2021/11/14 04:50:28;;;;;;;65.78;33.55;;;11.00;99.90;;;;;;5065648;28;20051;-72
2021/11/14 04:53:32;;;;;;;215.00;40.50;;;11.10;99.90;;;;;;5056941;28;20052;-72
2021/11/14 04:56:37;;;;;;;133.88;36.65;;;11.10;99.90;;;;;;5056328;28;20048;-72
2021/11/14 04:59:41;;;;;;;61.72;32.72;;;11.10;99.90;;;;;;5066095;28;20048;-72
2021/11/14 05:02:45;;;;;;;66.15;34.05;;;11.20;99.90;;;;;;5059876;28;20048;-72
2021/11/14 05:05:50;;;;;;;61.22;31.92;;;11.20;99.90;;;;;;5056190;28;20052;-71
2021/11/14 05:08:54;;;;;;;67.22;32.47;;;11.20;99.90;;;;;;5058990;28;20052;-72
2021/11/14 05:11:58;;;;;;;70.68;33.55;;;11.20;99.90;;;;;;5065014;28;20055;-72
2021/11/14 05:15:03;;;;;;;64.13;33.15;;;11.20;99.90;;;;;;5060476;28;20376;-72
2021/11/14 05:18:07;;;;;;;61.08;32.25;;;11.20;99.90;;;;;;5055270;28;20077;-71
2021/11/14 05:21:11;;;;;;;64.97;31.25;;;11.20;99.90;;;;;;5069714;28;20043;-72
2021/11/14 05:24:14;;;;;;;87.65;34.05;;;11.20;99.90;;;;;;5064988;28;20047;-72
2021/11/14 05:27:19;;;;;;;61.45;30.38;;;11.20;99.90;;;;;;5056166;28;20067;-72
2021/11/14 05:30:25;;;;;;;71.72;32.83;;;11.20;99.90;;;;;;5058809;28;20427;-72
2021/11/14 05:33:30;;;;;;;65.60;30.88;;;11.20;99.90;;;;;;5063816;28;20044;-72
2021/11/14 05:36:34;;;;;;;65.10;31.20;;;11.20;99.90;;;;;;5067622;28;20060;-71
2021/11/14 05:39:38;;;;;;;52.55;25.88;;;11.30;99.90;;;;;;5058733;28;20044;-72
2021/11/14 05:42:42;;;;;;;60.17;30.58;;;11.40;99.90;;;;;;5066742;28;20481;-72
2021/11/14 05:45:46;;;;;;;62.35;31.23;;;11.40;99.90;;;;;;5066148;28;20056;-72
2021/11/14 05:48:52;;;;;;;49.85;25.77;;;11.40;99.90;;;;;;5070215;28;20055;-72
2021/11/14 05:51:56;;;;;;;52.75;25.33;;;11.40;99.90;;;;;;5061941;28;20052;-72
2021/11/14 05:55:05;;;;;;;43.83;23.08;;;11.50;99.90;;;;;;5061625;28;20503;-72
2021/11/14 05:58:16;;;;;;;40.80;23.65;;;11.50;99.90;;;;;;5054197;28;20502;-72
2021/11/14 06:05:13;;;;;;;45.83;22.85;;;11.50;99.90;;;;;;5066607;28;20051;-71
2021/11/14 06:08:20;;;;;;;42.42;21.73;;;11.50;99.90;;;;;;5056611;28;20047;-72
2021/11/14 06:11:25;;;;;;;40.22;21.20;;;11.40;99.90;;;;;;5064256;28;20055;-72
2021/11/14 06:14:30;;;;;;;49.80;24.50;;;11.40;99.90;;;;;;5068906;28;20418;-72
2021/11/14 06:17:34;;;;;;;63.42;29.67;;;11.40;99.90;;;;;;5055646;28;20064;-72
2021/11/14 06:20:39;;;;;;;230.60;39.88;;;11.30;99.90;;;;;;5056690;28;20044;-72
2021/11/14 06:23:43;;;;;;;67.68;34.72;;;11.00;99.90;;;;;;5063469;28;20051;-72
2021/11/14 06:26:49;;;;;;;85.90;35.03;;;11.00;99.90;;;;;;5059103;28;20052;-72
2021/11/14 06:29:53;;;;;;;86.03;35.45;;;11.00;99.90;;;;;;5064009;28;20067;-71
2021/11/14 06:32:58;;;;;;;76.30;33.22;;;11.00;99.90;;;;;;5067184;28;20409;-71
2021/11/14 06:36:03;;;;;;;68.72;34.60;;;11.00;99.90;;;;;;5059761;28;20051;-72
2021/11/14 06:39:07;;;;;;;64.65;32.97;;;11.10;99.90;;;;;;5052979;28;20040;-72
2021/11/14 06:42:11;;;;;;;64.88;32.85;;;11.10;99.90;;;;;;5058061;28;20040;-72
2021/11/14 06:45:17;;;;;;;61.67;31.23;;;11.20;99.90;;;;;;5054092;28;20051;-72
2021/11/14 06:48:21;;;;;;;62.70;30.80;;;11.20;99.90;;;;;;5055645;28;20391;-72
2021/11/14 06:51:26;;;;;;;56.53;30.67;;;11.30;99.90;;;;;;5067258;28;20056;-72
2021/11/14 06:54:30;;;;;;;61.13;31.58;;;11.30;99.90;;;;;;5064572;28;20047;-72
2021/11/14 06:57:34;;;;;;;54.97;30.50;;;11.40;99.90;;;;;;5057831;28;20039;-72
2021/11/14 07:00:42;;;;;;;61.38;31.42;;;11.50;99.90;;;;;;5058840;28;20048;-72
2021/11/14 07:03:45;;;;;;;59.08;29.75;;;11.50;99.90;;;;;;5065537;28;20052;-71
2021/11/14 07:06:50;;;;;;;67.07;31.02;;;11.50;99.90;;;;;;5066014;28;20047;-72
2021/11/14 07:09:54;;;;;;;59.72;30.17;;;11.40;99.90;;;;;;5062023;28;20502;-71
2021/11/14 07:12:58;;;;;;;59.40;29.35;;;11.40;99.90;;;;;;5068455;28;20040;-72
2021/11/14 07:16:03;;;;;;;464.60;48.67;;;11.50;99.90;;;;;;5070284;28;20043;-72
2021/11/14 07:19:07;;;;;;;204.70;43.30;;;11.10;99.90;;;;;;5065263;28;20024;-71
2021/11/14 07:22:12;;;;;;;395.02;53.00;;;10.80;99.90;;;;;;5056731;28;20043;-71
2021/11/14 07:25:19;;;;;;;799.28;77.05;;;10.60;99.90;;;;;;5060295;28;20059;-71
2021/11/14 07:28:24;;;;;;;326.55;52.53;;;10.50;99.90;;;;;;5061145;28;20056;-71
2021/11/14 07:31:28;;;;;;;640.35;66.78;;;10.50;99.90;;;;;;5064006;28;20075;-71
2021/11/14 07:34:32;;;;;;;494.50;59.67;;;10.50;99.90;;;;;;5059489;28;20493;-72
2021/11/14 07:37:38;;;;;;;203.88;40.70;;;10.50;99.90;;;;;;5064710;28;20044;-72
2021/11/14 07:40:42;;;;;;;250.52;43.53;;;10.50;99.90;;;;;;5068097;28;20040;-72
2021/11/14 07:43:46;;;;;;;424.15;48.65;;;10.60;99.90;;;;;;5062304;28;20048;-71
2021/11/14 07:46:51;;;;;;;424.65;49.08;;;10.70;99.90;;;;;;5060434;28;20051;-71
2021/11/14 07:49:54;;;;;;;235.60;40.88;;;10.80;99.90;;;;;;5062556;28;20059;-71
2021/11/14 07:53:00;;;;;;;86.32;37.70;;;10.80;99.90;;;;;;5070968;28;20052;-71
2021/11/14 07:56:04;;;;;;;71.10;33.33;;;10.80;99.90;;;;;;5065524;28;20060;-71
2021/11/14 07:59:09;;;;;;;70.32;32.47;;;10.80;99.90;;;;;;5062486;28;20055;-71
2021/11/14 08:02:13;;;;;;;65.47;32.38;;;10.90;99.90;;;;;;5056469;28;20044;-72
2021/11/14 08:05:18;;;;;;;63.28;30.20;;;11.00;99.90;;;;;;5060587;28;20036;-72
2021/11/14 08:08:22;;;;;;;59.38;28.92;;;11.10;99.90;;;;;;5054966;28;20056;-72
2021/11/14 08:11:27;;;;;;;54.70;28.02;;;11.20;99.90;;;;;;5063944;28;20051;-71
2021/11/14 08:14:31;;;;;;;47.40;25.20;;;11.30;99.90;;;;;;5061251;28;20388;-71
2021/11/14 08:17:36;;;;;;;51.90;25.55;;;11.40;99.90;;;;;;5069458;28;20067;-72
2021/11/14 08:20:40;;;;;;;50.15;26.75;;;11.50;99.90;;;;;;5061112;28;20047;-72
2021/11/14 08:23:44;;;;;;;41.60;23.80;;;11.60;99.90;;;;;;5060340;28;20064;-72
2021/11/14 08:26:48;;;;;;;44.30;20.67;;;11.60;99.90;;;;;;5060634;28;20048;-72
2021/11/14 08:29:54;;;;;;;28.73;17.67;;;11.70;99.90;;;;;;5068371;28;20059;-72
2021/11/14 08:32:57;;;;;;;25.92;14.95;;;11.70;99.90;;;;;;5061794;28;20044;-71
2021/11/14 08:36:02;;;;;;;26.75;14.93;;;11.80;99.90;;;;;;5061895;28;20055;-72
2021/11/14 08:39:08;;;;;;;19.55;10.77;;;11.80;99.90;;;;;;5063271;28;20396;-71
2021/11/14 08:42:13;;;;;;;15.65;8.00;;;11.80;99.90;;;;;;5063188;28;20407;-71
2021/11/14 08:45:18;;;;;;;7.03;4.97;;;11.80;99.90;;;;;;5064110;28;20206;-71
2021/11/14 08:48:22;;;;;;;17.45;8.68;;;11.80;99.90;;;;;;5052885;28;20400;-71
2021/11/14 08:51:27;;;;;;;23.55;13.35;;;11.70;99.90;;;;;;5063524;28;20039;-71
2021/11/14 08:54:31;;;;;;;39.42;22.27;;;11.50;99.90;;;;;;5063877;28;20044;-71
2021/11/14 08:57:35;;;;;;;40.85;23.40;;;11.40;99.90;;;;;;5067162;28;20490;-71
2021/11/14 09:00:39;;;;;;;48.72;26.10;;;11.40;99.90;;;;;;5059495;28;20044;-71
2021/11/14 09:03:43;;;;;;;53.33;27.98;;;11.30;99.90;;;;;;5059415;28;20067;-71
2021/11/14 09:06:47;;;;;;;335.33;42.55;;;11.20;99.90;;;;;;5063534;28;20055;-71
2021/11/14 09:09:52;;;;;;;1264.85;83.85;;;11.10;99.90;;;;;;5067552;28;20047;-72
2021/11/14 09:12:56;;;;;;;1579.90;106.95;;;10.90;99.90;;;;;;5062759;28;20037;-72
2021/11/14 09:16:02;;;;;;;1140.30;83.65;;;10.80;99.90;;;;;;5069103;28;20419;-72
2021/11/14 09:19:08;;;;;;;324.98;43.92;;;10.90;99.90;;;;;;5058402;28;20028;-71
2021/11/14 09:22:12;;;;;;;79.50;29.13;;;11.00;99.90;;;;;;5062500;28;20035;-71
2021/11/14 09:25:16;;;;;;;55.80;29.45;;;11.10;99.90;;;;;;5064628;28;20044;-72
2021/11/14 09:28:21;;;;;;;49.22;25.63;;;11.10;99.90;;;;;;5063298;28;20048;-71
2021/11/14 09:31:27;;;;;;;48.78;26.45;;;11.30;99.90;;;;;;5064282;28;20044;-71
2021/11/14 09:34:31;;;;;;;43.15;23.98;;;11.50;99.90;;;;;;5050685;28;20135;-71
2021/11/14 09:37:36;;;;;;;39.42;22.58;;;11.60;99.90;;;;;;5065927;28;20044;-72
2021/11/14 09:40:41;;;;;;;43.35;22.17;;;11.80;99.90;;;;;;5058909;28;20490;-71
2021/11/14 09:43:46;;;;;;;39.13;22.88;;;11.90;99.90;;;;;;5051479;28;20415;-71
2021/11/14 09:46:56;;;;;;;33.85;19.92;;;12.00;99.90;;;;;;5059955;28;20047;-72
2021/11/14 09:50:03;;;;;;;32.10;17.90;;;12.10;99.90;;;;;;5058798;28;20052;-72
2021/11/14 09:53:08;;;;;;;29.48;17.15;;;12.30;99.90;;;;;;5061902;28;20067;-72
2021/11/14 09:56:12;;;;;;;27.83;16.02;;;12.30;99.90;;;;;;5057397;28;20031;-72
2021/11/14 09:59:17;;;;;;;22.98;14.48;;;12.40;99.90;;;;;;5061336;28;20481;-72
2021/11/14 10:02:22;;;;;;;25.13;14.32;;;12.50;99.90;;;;;;5058402;28;20040;-72
2021/11/14 10:05:26;;;;;;;28.90;17.40;;;12.50;99.90;;;;;;5057999;28;20048;-72
2021/11/14 10:08:42;;;;;;;33.80;19.75;;;12.40;99.90;;;;;;5057925;28;20071;-71
2021/11/14 10:11:46;;;;;;;35.22;20.58;;;12.30;99.90;;;;;;5064061;28;20043;-72
2021/11/14 10:15:04;;;;;;;27.98;17.65;;;12.30;99.90;;;;;;5058923;28;20048;-72
2021/11/14 10:18:08;;;;;;;27.00;16.20;;;12.10;99.90;;;;;;5060044;28;20044;-72
2021/11/14 10:21:13;;;;;;;25.33;15.10;;;12.30;99.90;;;;;;5061305;28;20040;-72
2021/11/14 10:24:17;;;;;;;31.05;16.15;;;12.50;99.90;;;;;;5057582;28;20043;-72
2021/11/14 10:27:26;;;;;;;29.17;16.88;;;12.40;99.90;;;;;;5054973;28;20051;-72
2021/11/14 10:30:32;;;;;;;25.65;15.13;;;12.50;99.90;;;;;;5059452;28;20044;-72
2021/11/14 10:33:38;;;;;;;27.17;17.25;;;12.60;99.90;;;;;;5062805;28;20043;-72
2021/11/14 10:36:42;;;;;;;27.20;17.20;;;12.50;99.90;;;;;;5060146;28;20463;-72
2021/11/14 10:39:52;;;;;;;30.50;17.35;;;12.60;99.90;;;;;;5060173;28;20059;-72
2021/11/14 10:43:00;;;;;;;33.42;17.80;;;12.50;99.90;;;;;;5064112;28;20478;-72
2021/11/14 10:46:04;;;;;;;26.50;16.60;;;12.40;99.90;;;;;;5064456;28;20044;-72
2021/11/14 10:49:09;;;;;;;24.17;14.35;;;12.50;99.90;;;;;;5064863;28;20051;-72
2021/11/14 10:52:13;;;;;;;23.80;15.07;;;12.70;99.90;;;;;;5065931;28;20040;-72
2021/11/14 10:55:18;;;;;;;23.05;15.52;;;12.80;99.90;;;;;;5060855;28;20052;-72
2021/11/14 10:58:25;;;;;;;20.65;12.68;;;12.90;99.90;;;;;;5066522;28;20043;-71
2021/11/14 11:01:35;;;;;;;18.67;12.43;;;13.00;99.90;;;;;;5068930;28;20047;-72
2021/11/14 11:04:38;;;;;;;20.13;13.02;;;13.10;99.90;;;;;;5068454;28;20044;-72
2021/11/14 11:07:54;;;;;;;24.80;14.57;;;13.00;99.90;;;;;;5060871;28;20068;-72
2021/11/14 11:11:00;;;;;;;20.50;11.55;;;13.10;99.90;;;;;;5070414;28;20064;-72
2021/11/14 11:14:04;;;;;;;18.08;12.55;;;13.20;99.90;;;;;;5063222;28;20040;-72
2021/11/14 11:17:08;;;;;;;20.23;11.00;;;13.30;99.90;;;;;;5060989;28;20044;-72
2021/11/14 11:20:15;;;;;;;16.77;12.48;;;13.30;99.90;;;;;;5058137;28;20039;-72
2021/11/14 11:23:21;;;;;;;19.70;12.88;;;13.30;99.90;;;;;;5064397;28;20043;-71
2021/11/14 11:26:25;;;;;;;18.42;12.48;;;13.20;99.90;;;;;;5060576;28;20059;-72
2021/11/14 11:29:33;;;;;;;18.13;12.35;;;13.10;99.90;;;;;;5060002;28;20047;-72
2021/11/14 11:32:37;;;;;;;20.17;12.73;;;13.20;99.90;;;;;;5059890;28;20051;-72
2021/11/14 11:35:41;;;;;;;19.15;12.13;;;13.30;99.90;;;;;;5064895;28;20047;-72
2021/11/14 11:38:46;;;;;;;20.33;13.50;;;13.40;99.90;;;;;;5062610;28;20040;-72
2021/11/14 11:41:53;;;;;;;17.45;12.00;;;13.50;99.90;;;;;;5062571;28;20056;-72
2021/11/14 11:44:59;;;;;;;18.10;11.27;;;13.50;99.90;;;;;;5061359;28;20052;-72
2021/11/14 11:48:11;;;;;;;18.17;12.48;;;13.40;99.90;;;;;;5067248;28;20052;-72
2021/11/14 11:51:27;;;;;;;25.40;13.77;;;13.30;99.90;;;;;;5060618;28;20389;-71
2021/11/14 11:54:33;;;;;;;22.42;14.05;;;13.20;99.90;;;;;;5062251;28;20091;-72
2021/11/14 11:57:39;;;;;;;24.58;14.45;;;13.10;99.90;;;;;;5060708;28;20044;-72
2021/11/14 12:00:58;;;;;;;24.75;13.55;;;13.00;99.90;;;;;;5063384;28;20060;-72
2021/11/14 12:04:10;;;;;;;27.65;16.38;;;13.00;99.90;;;;;;5061369;28;20051;-72
2021/11/14 12:07:22;;;;;;;29.48;18.02;;;13.00;99.90;;;;;;5064631;28;20052;-72
2021/11/14 12:10:28;;;;;;;32.28;20.23;;;12.80;99.90;;;;;;5061364;28;20395;-72
2021/11/14 12:13:38;;;;;;;37.30;20.75;;;12.70;99.90;;;;;;5061405;28;20056;-72
2021/11/14 12:17:13;;;;;;;35.92;21.25;;;12.70;99.90;;;;;;5063867;28;20055;-72
2021/11/14 12:20:43;;;;;;;40.17;23.27;;;12.60;99.90;;;;;;5055730;28;20493;-72
2021/11/14 12:23:55;;;;;;;35.33;20.40;;;12.80;99.90;;;;;;5068144;28;20067;-72
2021/11/14 12:27:01;;;;;;;31.52;20.13;;;13.00;99.90;;;;;;5067549;28;20059;-72
2021/11/14 12:30:15;;;;;;;25.60;16.23;;;13.00;99.90;;;;;;5062039;28;20048;-72
2021/11/14 12:33:24;;;;;;;56.10;32.75;;;12.70;99.90;;;;;;5064653;28;20036;-72
2021/11/14 12:36:37;;;;;;;25.17;15.13;;;12.80;99.90;;;;;;5059268;28;20044;-72
2021/11/14 12:39:45;;;;;;;25.45;16.05;;;12.60;99.90;;;;;;5062527;28;20387;-72
2021/11/14 12:42:53;;;;;;;26.10;15.95;;;12.60;99.90;;;;;;5068271;28;20047;-72
2021/11/14 12:46:00;;;;;;;19.02;13.20;;;12.70;99.90;;;;;;5063537;28;20043;-72
2021/11/14 12:49:12;;;;;;;21.50;14.52;;;12.90;99.90;;;;;;5061583;28;20051;-72
2021/11/14 12:52:30;;;;;;;23.70;16.00;;;13.00;99.90;;;;;;5063032;28;20040;-72
2021/11/14 12:55:36;;;;;;;25.33;16.45;;;13.20;99.90;;;;;;5059170;28;20071;-72
2021/11/14 12:58:40;;;;;;;28.70;16.05;;;13.30;99.90;;;;;;5061179;28;20039;-72
2021/11/14 13:01:46;;;;;;;25.23;15.55;;;13.30;99.90;;;;;;5057648;28;20111;-72
2021/11/14 13:04:50;;;;;;;24.80;15.20;;;13.40;99.90;;;;;;5058686;28;20044;-72
2021/11/14 13:08:00;;;;;;;24.25;14.82;;;13.40;99.90;;;;;;5066906;28;20056;-72
2021/11/14 13:11:25;;;;;;;27.75;17.00;;;13.50;99.90;;;;;;5061911;28;20498;-72
2021/11/14 13:14:35;;;;;;;25.75;15.30;;;13.50;99.90;;;;;;5064385;28;20071;-72
2021/11/14 13:17:48;;;;;;;27.02;17.58;;;13.50;99.90;;;;;;5056360;28;20516;-72
2021/11/14 13:20:55;;;;;;;26.00;15.77;;;13.50;99.90;;;;;;5060190;28;20043;-72
2021/11/14 13:24:11;;;;;;;30.05;18.95;;;13.50;99.90;;;;;;5060521;28;20047;-71
2021/11/14 13:27:17;;;;;;;25.45;17.15;;;13.50;99.90;;;;;;5058362;28;20470;-71
2021/11/14 13:30:23;;;;;;;27.55;18.15;;;13.50;99.90;;;;;;5061711;28;20044;-71
2021/11/14 13:33:27;;;;;;;27.65;16.75;;;13.40;99.90;;;;;;5063145;28;20489;-72
2021/11/14 13:36:33;;;;;;;30.90;18.42;;;13.40;99.90;;;;;;5058346;28;20047;-72
2021/11/14 13:39:48;;;;;;;24.05;15.68;;;13.60;99.90;;;;;;5057711;28;20056;-72
2021/11/14 13:43:00;;;;;;;28.60;17.70;;;13.70;99.90;;;;;;5061768;28;20055;-72
2021/11/14 13:46:04;;;;;;;24.42;16.25;;;13.70;99.90;;;;;;5058591;28;20407;-72
2021/11/14 13:49:10;;;;;;;28.13;16.75;;;13.80;99.90;;;;;;5061279;28;20383;-72
2021/11/14 13:52:17;;;;;;;25.80;15.82;;;13.70;99.90;;;;;;5058732;28;20047;-72
2021/11/14 13:55:22;;;;;;;24.67;16.05;;;13.70;99.90;;;;;;5062496;28;20494;-72
2021/11/14 13:58:40;;;;;;;23.58;15.20;;;13.70;99.90;;;;;;5060830;28;20495;-72
2021/11/14 14:01:58;;;;;;;22.92;14.98;;;13.60;99.90;;;;;;5056564;28;20051;-72
2021/11/14 14:05:07;;;;;;;27.48;15.25;;;13.70;99.90;;;;;;5058727;28;20048;-72
2021/11/14 14:08:11;;;;;;;23.95;15.80;;;13.70;99.90;;;;;;5057640;28;20040;-72
2021/11/14 14:11:17;;;;;;;20.50;14.20;;;13.60;99.90;;;;;;5056058;28;20063;-72
2021/11/14 14:14:24;;;;;;;23.48;14.40;;;13.60;99.90;;;;;;5064263;28;20487;-72
2021/11/14 14:17:28;;;;;;;24.05;14.35;;;13.60;99.90;;;;;;5063542;28;20059;-72
2021/11/14 14:20:32;;;;;;;25.25;14.38;;;13.40;99.90;;;;;;5057128;28;20128;-72
2021/11/14 14:23:38;;;;;;;24.75;15.63;;;13.40;99.90;;;;;;5058321;28;20046;-72
2021/11/14 14:26:43;;;;;;;20.42;14.52;;;13.30;99.90;;;;;;5062438;28;20055;-72
2021/11/14 14:30:05;;;;;;;35.63;22.70;;;13.30;99.90;;;;;;5065011;28;20051;-72
2021/11/14 14:33:13;;;;;;;32.15;20.48;;;13.20;99.90;;;;;;5061714;28;20048;-72
2021/11/14 14:36:18;;;;;;;25.90;15.20;;;13.20;99.90;;;;;;5062306;28;20051;-72
2021/11/14 14:39:24;;;;;;;20.80;14.25;;;13.20;99.90;;;;;;5054355;28;20047;-72
2021/11/14 14:42:28;;;;;;;25.10;14.60;;;13.10;99.90;;;;;;5064217;28;20047;-72
2021/11/14 14:45:33;;;;;;;25.60;15.35;;;13.10;99.90;;;;;;5060264;28;20063;-72
2021/11/14 14:48:45;;;;;;;23.33;13.90;;;13.10;99.90;;;;;;5063574;28;20067;-72
2021/11/14 14:51:59;;;;;;;24.83;13.93;;;13.00;99.90;;;;;;5059030;28;20052;-72
2021/11/14 14:55:11;;;;;;;25.88;16.25;;;13.00;99.90;;;;;;5061104;28;20059;-72
2021/11/14 14:58:16;;;;;;;30.80;18.85;;;13.10;99.90;;;;;;5060029;28;20048;-72
2021/11/14 15:01:23;;;;;;;22.48;15.38;;;13.00;99.90;;;;;;5062346;28;20044;-72
2021/11/14 15:04:43;;;;;;;25.73;16.10;;;13.00;99.90;;;;;;5061333;28;20075;-72
2021/11/14 15:07:56;;;;;;;24.10;14.70;;;13.00;99.90;;;;;;5064675;28;20506;-72
2021/11/14 15:11:02;;;;;;;20.75;14.57;;;13.00;99.90;;;;;;5060114;28;20115;-72
2021/11/14 15:14:06;;;;;;;20.00;13.25;;;13.00;99.90;;;;;;5060841;28;20048;-72
2021/11/14 15:17:18;;;;;;;24.27;15.75;;;12.90;99.90;;;;;;5060804;28;20040;-72
2021/11/14 15:20:26;;;;;;;21.88;15.02;;;12.90;99.90;;;;;;5056849;28;20029;-72
2021/11/14 15:23:30;;;;;;;22.90;13.75;;;12.90;99.90;;;;;;5057642;28;20036;-72
2021/11/14 15:26:40;;;;;;;23.25;15.20;;;12.90;99.90;;;;;;5064131;28;20043;-72
2021/11/14 15:29:50;;;;;;;22.98;15.18;;;12.90;99.90;;;;;;5065878;28;20035;-72
2021/11/14 15:33:00;;;;;;;21.58;14.38;;;12.80;99.90;;;;;;5063185;28;20391;-72
2021/11/14 15:36:06;;;;;;;22.73;14.32;;;12.80;99.90;;;;;;5065600;28;20035;-72
2021/11/14 15:39:11;;;;;;;21.45;13.85;;;12.70;99.90;;;;;;5067144;28;20146;-72
2021/11/14 15:42:17;;;;;;;21.17;13.23;;;12.60;99.90;;;;;;5060837;28;20578;-72
2021/11/14 15:45:29;;;;;;;29.33;20.17;;;12.60;99.90;;;;;;5060037;28;20494;-72
2021/11/14 15:48:34;;;;;;;32.65;20.35;;;12.50;99.90;;;;;;5058637;28;20048;-72